Time,TemperatureF,DewpointF,PressureIn,WindDirection,WindDirectionDegrees,WindSpeedMPH,WindSpeedGustMPH,Humidity,HourlyPrecipIn,Conditions,Clouds,dailyrainin,SolarRadiationWatts/m^2,SoftwareType,DateUTC
2013-09-03 00:01:00,80.0,77.1,29.87,South,172,2.8,5.0,91,0.00,CLR,OVC,0.02,0.0,WeatherDisplay:10.37,2013-09-03 04:01:00,
2013-09-03 00:02:00,80.0,77.1,29.87,South,186,3.6,5.8,91,0.00,CLR,OVC,0.02,0.0,WeatherDisplay:10.37,2013-09-03 04:02:00,
2013-09-03 00:07:00,79.9,77.0,29.87,SW,225,2.9,10.4,91,0.00,RA,OVC,0.00,0.0,WeatherDisplay:10.37,2013-09-03 04:07:00,
2013-09-03 00:12:00,79.9,77.0,29.87,SSW,213,3.3,11.5,91,0.00,RA,OVC,0.00,0.0,WeatherDisplay:10.37,2013-09-03 04:12:00,
2013-09-03 00:17:00,79.8,76.9,29.87,SW,232,4.4,7.0,91,0.00,CLR,OVC,0.00,0.0,WeatherDisplay:10.37,2013-09-03 04:17:00,
2013-09-03 00:22:00,79.8,76.9,29.87,SSW,209,4.7,8.1,91,0.00,CLR,OVC,0.00,0.0,WeatherDisplay:10.37,2013-09-03 04:22:00,
2013-09-03 00:27:00,79.9,77.0,29.87,West,271,2.6,6.9,91,0.00,CLR,OVC,0.00,0.0,WeatherDisplay:10.37,2013-09-03 04:27:00,
2013-09-03 00:32:00,79.8,76.9,29.87,SSW,200,5.8,10.4,91,0.00,CLR,OVC,0.00,0.0,WeatherDisplay:10.37,2013-09-03 04:32:00,
2013-09-03 00:37:00,79.8,76.9,29.87,SW,234,3.7,4.6,91,0.00,CLR,OVC,0.00,0.0,WeatherDisplay:10.37,2013-09-03 04:37:00,
2013-09-03 00:42:00,79.8,76.9,29.87,WSW,249,3.4,10.4,91,0.00,CLR,OVC,0.00,0.0,WeatherDisplay:10.37,2013-09-03 04:42:00,
2013-09-03 00:47:00,79.9,77.0,29.87,SE,146,2.9,11.5,91,0.00,CLR,OVC,0.00,0.0,WeatherDisplay:10.37,2013-09-03 04:47:00,
2013-09-03 00:52:00,80.0,77.1,29.87,SW,230,0.4,4.6,91,0.00,CLR,OVC,0.00,0.0,WeatherDisplay:10.37,2013-09-03 04:52:00,
2013-09-03 00:57:00,80.0,77.1,29.87,SSW,209,3.6,6.9,91,0.00,CLR,OVC,0.00,0.0,WeatherDisplay:10.37,2013-09-03 04:57:00,
2013-09-03 01:02:00,80.0,77.1,29.87,SW,219,3.2,6.9,91,0.00,CLR,OVC,0.00,0.0,WeatherDisplay:10.37,2013-09-03 05:02:00,
2013-09-03 01:07:00,80.0,77.1,29.86,South,189,0.2,2.3,91,0.00,CLR,OVC,0.00,0.0,WeatherDisplay:10.37,2013-09-03 05:07:00,
2013-09-03 01:12:00,80.0,77.1,29.86,SW,223,3.2,8.1,91,0.00,CLR,OVC,0.00,0.0,WeatherDisplay:10.37,2013-09-03 05:12:00,
2013-09-03 01:17:00,80.0,77.1,29.87,SSW,198,5.6,10.4,91,0.00,CLR,OVC,0.00,0.0,WeatherDisplay:10.37,2013-09-03 05:17:00,
2013-09-03 01:22:00,80.0,77.1,29.86,WSW,238,3.5,8.1,91,0.00,CLR,OVC,0.00,0.0,WeatherDisplay:10.37,2013-09-03 05:22:00,
2013-09-03 01:27:00,79.9,77.0,29.86,SW,215,1.9,4.6,91,0.00,CLR,OVC,0.00,0.0,WeatherDisplay:10.37,2013-09-03 05:27:00,
2013-09-03 01:32:00,79.9,77.0,29.86,SSW,202,0.7,3.5,91,0.00,CLR,OVC,0.00,0.0,WeatherDisplay:10.37,2013-09-03 05:32:00,
2013-09-03 01:37:00,79.8,76.9,29.86,WSW,247,3.0,4.6,91,0.00,CLR,OVC,0.00,0.0,WeatherDisplay:10.37,2013-09-03 05:37:00,
2013-09-03 01:42:00,79.8,76.9,29.86,WSW,240,1.5,3.5,91,0.00,CLR,OVC,0.00,0.0,WeatherDisplay:10.37,2013-09-03 05:42:00,
2013-09-03 01:47:00,79.7,77.2,29.85,SSW,201,1.0,3.5,92,0.00,CLR,OVC,0.00,0.0,WeatherDisplay:10.37,2013-09-03 05:47:00,
2013-09-03 01:52:00,79.7,77.2,29.86,SSW,203,0.6,2.3,92,0.00,CLR,OVC,0.00,0.0,WeatherDisplay:10.37,2013-09-03 05:52:00,
2013-09-03 01:57:00,79.7,77.2,29.86,SW,236,2.7,4.6,92,0.00,CLR,OVC,0.00,0.0,WeatherDisplay:10.37,2013-09-03 05:57:00,
2013-09-03 02:02:00,79.7,77.2,29.86,SSW,213,0.0,1.1,92,0.00,CLR,OVC,0.00,0.0,WeatherDisplay:10.37,2013-09-03 06:02:00,
2013-09-03 02:07:00,79.6,77.1,29.85,SW,217,0.0,0.0,92,0.00,CLR,OVC,0.00,0.0,WeatherDisplay:10.37,2013-09-03 06:07:00,
2013-09-03 02:12:00,79.5,77.0,29.85,SW,227,2.8,3.5,92,0.00,CLR,OVC,0.00,0.0,WeatherDisplay:10.37,2013-09-03 06:12:00,
2013-09-03 02:17:00,79.5,77.0,29.85,SSW,210,1.6,6.9,92,0.00,CLR,OVC,0.00,0.0,WeatherDisplay:10.37,2013-09-03 06:17:00,
2013-09-03 02:22:00,79.6,76.7,29.85,SW,234,2.5,5.8,91,0.00,CLR,OVC,0.00,0.0,WeatherDisplay:10.37,2013-09-03 06:22:00,
2013-09-03 02:27:00,79.7,76.8,29.84,West,273,0.0,1.0,91,0.00,CLR,OVC,0.00,0.0,WeatherDisplay:10.37,2013-09-03 06:27:00,
2013-09-03 02:32:00,79.6,76.7,29.84,SW,229,0.0,0.0,91,0.00,CLR,OVC,0.00,0.0,WeatherDisplay:10.37,2013-09-03 06:32:00,
2013-09-03 02:38:00,79.6,76.7,29.84,SSW,206,0.0,0.0,91,0.00,CLR,OVC,0.00,0.0,WeatherDisplay:10.37,2013-09-03 06:38:00,
2013-09-03 02:43:00,79.5,76.6,29.84,WSW,237,0.0,0.0,91,0.00,CLR,OVC,0.00,0.0,WeatherDisplay:10.37,2013-09-03 06:43:00,
2013-09-03 02:48:00,79.4,76.5,29.84,WSW,251,0.8,3.5,91,0.00,CLR,OVC,0.00,0.0,WeatherDisplay:10.37,2013-09-03 06:48:00,
2013-09-03 02:53:00,79.3,76.8,29.84,WSW,248,0.0,0.0,92,0.00,CLR,OVC,0.00,0.0,WeatherDisplay:10.37,2013-09-03 06:53:00,
2013-09-03 02:58:00,79.2,76.7,29.83,SW,234,0.0,0.0,92,0.00,CLR,OVC,0.00,0.0,WeatherDisplay:10.37,2013-09-03 06:58:00,
2013-09-03 03:03:00,79.1,76.6,29.83,West,273,0.4,3.5,92,0.00,CLR,OVC,0.00,0.0,WeatherDisplay:10.37,2013-09-03 07:03:00,
2013-09-03 03:08:00,78.9,76.4,29.83,SSW,204,0.0,3.5,92,0.00,CLR,OVC,0.00,0.0,WeatherDisplay:10.37,2013-09-03 07:08:00,
2013-09-03 03:13:00,78.9,76.4,29.84,WSW,246,1.0,5.8,92,0.00,CLR,OVC,0.00,0.0,WeatherDisplay:10.37,2013-09-03 07:13:00,
2013-09-03 03:18:00,78.7,75.8,29.83,SSW,204,0.1,1.1,91,0.00,CLR,OVC,0.00,0.0,WeatherDisplay:10.37,2013-09-03 07:18:00,
2013-09-03 03:23:00,78.6,75.4,29.83,SW,219,0.4,3.5,90,0.00,CLR,OVC,0.00,0.0,WeatherDisplay:10.37,2013-09-03 07:23:00,
2013-09-03 03:28:00,78.5,75.0,29.83,SSW,211,0.3,3.5,89,0.00,CLR,OVC,0.00,0.0,WeatherDisplay:10.37,2013-09-03 07:28:00,
2013-09-03 03:33:00,78.5,75.0,29.83,WSW,244,1.2,3.5,89,0.00,CLR,OVC,0.00,0.0,WeatherDisplay:10.37,2013-09-03 07:33:00,
2013-09-03 03:38:00,78.4,74.5,29.83,SW,229,0.0,0.0,88,0.00,CLR,OVC,0.00,0.0,WeatherDisplay:10.37,2013-09-03 07:38:00,
2013-09-03 03:43:00,78.4,74.5,29.83,SW,226,0.0,0.0,88,0.00,CLR,OVC,0.00,0.0,WeatherDisplay:10.37,2013-09-03 07:43:00,
2013-09-03 03:48:00,78.3,74.5,29.83,West,266,0.0,0.0,88,0.00,CLR,OVC,0.00,0.0,WeatherDisplay:10.37,2013-09-03 07:48:00,
2013-09-03 03:53:00,78.2,74.0,29.83,SSW,196,0.8,3.5,87,0.00,CLR,OVC,0.00,0.0,WeatherDisplay:10.37,2013-09-03 07:53:00,
2013-09-03 03:58:00,78.2,74.0,29.83,WSW,240,1.0,6.9,87,0.00,CLR,OVC,0.00,0.0,WeatherDisplay:10.37,2013-09-03 07:58:00,
2013-09-03 04:03:00,78.1,73.9,29.83,SW,221,3.3,4.6,87,0.00,CLR,OVC,0.00,0.0,WeatherDisplay:10.37,2013-09-03 08:03:00,
2013-09-03 04:08:00,78.1,73.9,29.84,WSW,237,0.5,3.5,87,0.00,CLR,OVC,0.00,0.0,WeatherDisplay:10.37,2013-09-03 08:08:00,
2013-09-03 04:13:00,78.1,73.9,29.83,SW,232,0.0,2.3,87,0.00,CLR,OVC,0.00,0.0,WeatherDisplay:10.37,2013-09-03 08:13:00,
2013-09-03 04:18:00,78.0,73.8,29.84,SW,235,0.0,0.0,87,0.00,CLR,OVC,0.00,0.0,WeatherDisplay:10.37,2013-09-03 08:18:00,
2013-09-03 04:23:00,77.9,73.7,29.84,WSW,257,0.0,0.0,87,0.00,CLR,OVC,0.00,0.0,WeatherDisplay:10.37,2013-09-03 08:23:00,
2013-09-03 04:28:00,77.7,73.9,29.84,WSW,250,0.3,0.0,88,0.00,CLR,OVC,0.00,0.0,WeatherDisplay:10.37,2013-09-03 08:28:00,
2013-09-03 04:33:00,77.6,73.8,29.84,WSW,242,0.0,0.0,88,0.00,CLR,OVC,0.00,0.0,WeatherDisplay:10.37,2013-09-03 08:33:00,
2013-09-03 04:38:00,77.4,73.6,29.84,SSW,209,0.9,4.6,88,0.00,CLR,OVC,0.00,0.0,WeatherDisplay:10.37,2013-09-03 08:38:00,
2013-09-03 04:43:00,77.4,73.9,29.85,SW,225,0.1,1.1,89,0.00,CLR,OVC,0.00,0.0,WeatherDisplay:10.37,2013-09-03 08:43:00,
2013-09-03 04:48:00,77.3,73.8,29.85,SSW,213,0.0,0.0,89,0.00,CLR,OVC,0.00,0.0,WeatherDisplay:10.37,2013-09-03 08:48:00,
2013-09-03 04:53:00,77.1,73.6,29.85,SSW,202,0.0,0.0,89,0.00,CLR,OVC,0.00,0.0,WeatherDisplay:10.37,2013-09-03 08:53:00,
2013-09-03 04:58:00,77.1,73.6,29.85,SW,219,0.6,2.3,89,0.00,CLR,OVC,0.00,0.0,WeatherDisplay:10.37,2013-09-03 08:58:00,
2013-09-03 05:03:00,77.0,73.8,29.86,WSW,237,0.0,3.5,90,0.00,CLR,OVC,0.00,0.0,WeatherDisplay:10.37,2013-09-03 09:03:00,
2013-09-03 05:08:00,76.9,73.7,29.85,SW,217,0.9,0.0,90,0.00,CLR,OVC,0.00,0.0,WeatherDisplay:10.37,2013-09-03 09:08:00,
2013-09-03 05:13:00,76.9,73.4,29.86,SW,231,1.7,6.9,89,0.00,CLR,OVC,0.00,0.0,WeatherDisplay:10.37,2013-09-03 09:13:00,
2013-09-03 05:18:00,76.9,73.4,29.85,South,187,3.0,5.8,89,0.00,CLR,OVC,0.00,0.0,WeatherDisplay:10.37,2013-09-03 09:18:00,
2013-09-03 05:23:00,76.8,73.3,29.85,South,191,1.2,2.0,89,0.00,CLR,OVC,0.00,0.0,WeatherDisplay:10.37,2013-09-03 09:23:00,
2013-09-03 05:28:00,76.7,72.9,29.85,SW,222,0.5,3.5,88,0.00,CLR,OVC,0.00,0.0,WeatherDisplay:10.37,2013-09-03 09:28:00,
2013-09-03 05:33:00,76.7,72.9,29.85,WSW,246,0.0,0.0,88,0.00,CLR,OVC,0.00,0.0,WeatherDisplay:10.37,2013-09-03 09:33:00,
2013-09-03 05:38:00,76.6,73.1,29.85,SW,228,0.0,4.6,89,0.00,CLR,OVC,0.00,0.0,WeatherDisplay:10.37,2013-09-03 09:38:00,
2013-09-03 05:43:00,76.4,72.9,29.85,SW,235,0.0,0.0,89,0.00,CLR,OVC,0.00,0.0,WeatherDisplay:10.37,2013-09-03 09:43:00,
2013-09-03 05:48:00,76.4,72.9,29.85,WSW,245,0.3,5.0,89,0.00,CLR,OVC,0.00,0.0,WeatherDisplay:10.37,2013-09-03 09:48:00,
2013-09-03 05:53:00,76.2,72.4,29.86,WSW,238,0.0,3.5,88,0.00,CLR,OVC,0.00,0.0,WeatherDisplay:10.37,2013-09-03 09:53:00,
2013-09-03 05:58:00,76.1,72.6,29.86,SW,236,0.0,0.0,89,0.00,CLR,OVC,0.00,0.0,WeatherDisplay:10.37,2013-09-03 09:58:00,
2013-09-03 06:03:00,75.9,72.4,29.86,SW,234,0.0,0.0,89,0.00,CLR,OVC,0.00,0.0,WeatherDisplay:10.37,2013-09-03 10:03:00,
2013-09-03 06:08:00,75.8,72.3,29.86,WSW,237,0.0,0.0,89,0.00,CLR,OVC,0.00,0.0,WeatherDisplay:10.37,2013-09-03 10:08:00,
2013-09-03 06:13:00,75.7,72.2,29.86,SSW,207,0.0,3.5,89,0.00,CLR,OVC,0.00,0.0,WeatherDisplay:10.37,2013-09-03 10:13:00,
2013-09-03 06:18:00,75.6,72.1,29.86,SW,235,0.0,0.0,89,0.00,CLR,OVC,0.00,0.0,WeatherDisplay:10.37,2013-09-03 10:18:00,
2013-09-03 06:23:00,75.5,72.0,29.87,SW,228,0.8,3.5,89,0.00,OVC,,0.00,0.0,WeatherDisplay:10.37,2013-09-03 10:23:00,
2013-09-03 06:28:00,75.5,72.0,29.87,SW,214,1.7,3.5,89,0.00,OVC,,0.00,0.0,WeatherDisplay:10.37,2013-09-03 10:28:00,
2013-09-03 06:33:00,75.5,72.0,29.87,SW,223,2.6,3.5,89,0.00,OVC,,0.00,0.0,WeatherDisplay:10.37,2013-09-03 10:33:00,
2013-09-03 06:38:00,75.4,71.9,29.87,SSW,194,3.3,3.5,89,0.00,OVC,,0.00,0.0,WeatherDisplay:10.37,2013-09-03 10:38:00,
2013-09-03 06:43:00,75.4,71.9,29.87,South,190,0.2,1.1,89,0.00,OVC,,0.00,0.0,WeatherDisplay:10.37,2013-09-03 10:43:00,
2013-09-03 06:48:00,75.3,71.8,29.87,SW,230,3.2,4.6,89,0.00,OVC,,0.00,0.0,WeatherDisplay:10.37,2013-09-03 10:48:00,
2013-09-03 06:53:00,75.3,71.8,29.87,WSW,246,1.4,3.5,89,0.00,OVC,,0.00,0.0,WeatherDisplay:10.37,2013-09-03 10:53:00,
2013-09-03 06:58:00,75.3,71.5,29.87,SSW,205,0.7,4.0,88,0.00,OVC,,0.00,0.0,WeatherDisplay:10.37,2013-09-03 10:58:00,
2013-09-03 07:03:00,75.4,71.6,29.87,WSW,240,3.6,5.8,88,0.00,OVC,,0.00,0.0,WeatherDisplay:10.37,2013-09-03 11:03:00,
2013-09-03 07:08:00,75.5,71.7,29.88,SW,236,2.5,3.5,88,0.00,OVC,,0.00,0.0,WeatherDisplay:10.37,2013-09-03 11:08:00,
2013-09-03 07:13:00,75.5,71.7,29.88,SW,225,1.6,3.5,88,0.00,OVC,,0.00,0.0,WeatherDisplay:10.37,2013-09-03 11:13:00,
2013-09-03 07:18:00,75.7,71.9,29.88,SSW,205,3.4,4.6,88,0.00,OVC,,0.00,0.0,WeatherDisplay:10.37,2013-09-03 11:18:00,
2013-09-03 07:23:00,75.8,72.0,29.88,SW,228,3.9,5.8,88,0.00,OVC,,0.00,0.0,WeatherDisplay:10.37,2013-09-03 11:23:00,
2013-09-03 07:28:00,76.0,71.8,29.88,SW,229,3.1,4.6,87,0.00,OVC,,0.00,0.0,WeatherDisplay:10.37,2013-09-03 11:28:00,
2013-09-03 07:33:00,76.2,72.0,29.89,West,265,4.5,6.9,87,0.00,OVC,,0.00,0.0,WeatherDisplay:10.37,2013-09-03 11:33:00,
2013-09-03 07:38:00,76.4,72.2,29.88,SW,230,2.2,3.5,87,0.00,OVC,,0.00,0.0,WeatherDisplay:10.37,2013-09-03 11:38:00,
2013-09-03 07:43:00,76.4,72.2,29.89,SSW,202,4.2,6.9,87,0.00,OVC,,0.00,0.0,WeatherDisplay:10.37,2013-09-03 11:43:00,
2013-09-03 07:48:00,76.3,72.1,29.89,SW,223,2.4,3.5,87,0.00,OVC,,0.00,0.0,WeatherDisplay:10.37,2013-09-03 11:48:00,
2013-09-03 07:53:00,76.3,72.1,29.89,SSW,208,0.9,3.5,87,0.00,OVC,,0.00,0.0,WeatherDisplay:10.37,2013-09-03 11:53:00,
2013-09-03 07:58:00,76.4,72.2,29.89,SSW,205,1.2,3.0,87,0.00,OVC,,0.00,0.0,WeatherDisplay:10.37,2013-09-03 11:58:00,
2013-09-03 08:03:00,76.3,72.1,29.89,West,266,3.1,6.9,87,0.00,OVC,,0.00,0.0,WeatherDisplay:10.37,2013-09-03 12:03:00,
2013-09-03 08:08:00,76.3,72.1,29.89,South,178,1.8,3.5,87,0.00,OVC,,0.00,0.0,WeatherDisplay:10.37,2013-09-03 12:08:00,
2013-09-03 08:13:00,76.4,72.6,29.89,SW,214,0.9,3.5,88,0.00,OVC,,0.00,0.0,WeatherDisplay:10.37,2013-09-03 12:13:00,
2013-09-03 08:18:00,76.4,72.6,29.89,SW,219,2.2,3.5,88,0.00,OVC,,0.00,0.0,WeatherDisplay:10.37,2013-09-03 12:18:00,
2013-09-03 08:19:00,76.4,72.6,29.89,SW,217,2.0,3.5,88,0.00,OVC,,0.00,0.0,WeatherDisplay:10.37,2013-09-03 12:19:00,
2013-09-03 08:24:00,76.4,72.6,29.89,SSW,209,2.0,3.0,88,0.00,OVC,,0.00,0.0,WeatherDisplay:10.37,2013-09-03 12:24:00,
2013-09-03 08:29:00,76.4,72.6,29.89,SW,216,3.2,4.6,88,0.00,OVC,,0.00,0.0,WeatherDisplay:10.37,2013-09-03 12:29:00,
2013-09-03 08:34:00,76.5,72.7,29.89,WSW,244,0.7,2.3,88,0.00,OVC,,0.00,0.0,WeatherDisplay:10.37,2013-09-03 12:34:00,
2013-09-03 08:39:00,76.5,72.3,29.89,SW,232,1.9,2.3,87,0.00,OVC,,0.00,0.0,WeatherDisplay:10.37,2013-09-03 12:39:00,
2013-09-03 08:44:00,76.9,72.7,29.89,SSW,205,1.6,3.5,87,0.00,OVC,,0.00,0.0,WeatherDisplay:10.37,2013-09-03 12:44:00,
2013-09-03 08:49:00,77.6,73.4,29.89,SSW,213,1.9,3.5,87,0.00,OVC,,0.00,0.0,WeatherDisplay:10.37,2013-09-03 12:49:00,
2013-09-03 08:54:00,78.2,73.7,29.89,SW,229,0.2,1.0,86,0.00,OVC,,0.00,0.0,WeatherDisplay:10.37,2013-09-03 12:54:00,
2013-09-03 08:59:00,78.8,73.6,29.89,South,174,2.9,5.8,84,0.00,OVC,,0.00,0.0,WeatherDisplay:10.37,2013-09-03 12:59:00,
2013-09-03 09:04:00,79.3,73.7,29.89,SW,232,1.3,5.8,83,0.00,OVC,,0.00,0.0,WeatherDisplay:10.37,2013-09-03 13:04:00,
2013-09-03 09:09:00,79.6,73.6,29.89,SW,228,1.0,5.8,82,0.00,OVC,,0.00,0.0,WeatherDisplay:10.37,2013-09-03 13:09:00,
2013-09-03 09:14:00,80.0,73.6,29.89,South,173,2.2,4.6,81,0.00,OVC,,0.00,0.0,WeatherDisplay:10.37,2013-09-03 13:14:00,
2013-09-03 09:19:00,80.3,73.9,29.89,SSW,196,0.7,3.5,81,0.00,OVC,,0.00,0.0,WeatherDisplay:10.37,2013-09-03 13:19:00,
2013-09-03 09:24:00,80.9,74.5,29.89,SW,228,2.1,3.5,81,0.00,OVC,,0.00,0.0,WeatherDisplay:10.37,2013-09-03 13:24:00,
2013-09-03 09:29:00,81.6,74.8,29.89,SW,228,2.3,4.0,80,0.00,OVC,,0.00,0.0,WeatherDisplay:10.37,2013-09-03 13:29:00,
2013-09-03 09:34:00,82.1,74.9,29.89,SSW,205,1.2,3.5,79,0.00,OVC,,0.00,0.0,WeatherDisplay:10.37,2013-09-03 13:34:00,
2013-09-03 09:39:00,82.0,74.5,29.89,SW,234,1.9,5.8,78,0.00,OVC,,0.00,0.0,WeatherDisplay:10.37,2013-09-03 13:39:00,
2013-09-03 09:44:00,82.2,75.4,29.89,West,277,1.5,3.5,80,0.00,OVC,,0.00,0.0,WeatherDisplay:10.37,2013-09-03 13:44:00,
2013-09-03 09:49:00,82.5,74.9,29.89,SW,231,3.6,4.6,78,0.00,OVC,,0.00,0.0,WeatherDisplay:10.37,2013-09-03 13:49:00,
2013-09-03 09:54:00,82.9,75.3,29.89,SW,219,2.1,4.6,78,0.00,OVC,,0.00,0.0,WeatherDisplay:10.37,2013-09-03 13:54:00,
2013-09-03 09:59:00,83.2,75.2,29.89,SW,235,1.4,4.6,77,0.00,OVC,,0.00,0.0,WeatherDisplay:10.37,2013-09-03 13:59:00,
2013-09-03 10:04:00,83.7,75.7,29.89,SSE,160,2.4,3.5,77,0.00,OVC,,0.00,0.0,WeatherDisplay:10.37,2013-09-03 14:04:00,
2013-09-03 10:09:00,83.9,75.5,29.89,SW,231,0.4,2.0,76,0.00,OVC,,0.00,0.0,WeatherDisplay:10.37,2013-09-03 14:09:00,
2013-09-03 10:14:00,83.8,75.4,29.89,West,267,2.3,3.5,76,0.00,OVC,,0.00,0.0,WeatherDisplay:10.37,2013-09-03 14:14:00,
2013-09-03 10:19:00,83.7,75.3,29.89,SW,218,2.8,3.5,76,0.00,OVC,,0.00,0.0,WeatherDisplay:10.37,2013-09-03 14:19:00,
2013-09-03 10:24:00,83.4,75.4,29.90,SW,226,2.9,5.8,77,0.00,OVC,,0.00,0.0,WeatherDisplay:10.37,2013-09-03 14:24:00,
2013-09-03 10:29:00,83.3,75.7,29.90,SSW,213,1.4,2.3,78,0.00,OVC,,0.00,0.0,WeatherDisplay:10.37,2013-09-03 14:29:00,
2013-09-03 10:34:00,83.4,75.8,29.90,SW,232,0.9,5.0,78,0.00,OVC,,0.00,0.0,WeatherDisplay:10.37,2013-09-03 14:34:00,
2013-09-03 10:39:00,83.5,76.3,29.90,WSW,242,1.5,5.0,79,0.00,OVC,,0.00,0.0,WeatherDisplay:10.37,2013-09-03 14:39:00,
2013-09-03 10:44:00,83.5,75.9,29.90,WSW,250,3.4,7.0,78,0.00,OVC,,0.00,0.0,WeatherDisplay:10.37,2013-09-03 14:44:00,
2013-09-03 10:49:00,83.4,75.8,29.90,SW,225,1.2,3.5,78,0.00,OVC,,0.00,0.0,WeatherDisplay:10.37,2013-09-03 14:49:00,
2013-09-03 10:54:00,83.5,75.9,29.90,SW,222,3.4,4.6,78,0.00,OVC,,0.00,0.0,WeatherDisplay:10.37,2013-09-03 14:54:00,
2013-09-03 10:59:00,83.5,75.5,29.90,SW,222,3.4,4.6,77,0.00,OVC,,0.00,0.0,WeatherDisplay:10.37,2013-09-03 14:59:00,
2013-09-03 11:04:00,83.2,74.8,29.90,WSW,238,4.0,8.1,76,0.00,OVC,,0.00,0.0,WeatherDisplay:10.37,2013-09-03 15:04:00,
2013-09-03 11:09:00,83.0,75.0,29.90,SSW,209,5.4,8.1,77,0.00,OVC,,0.00,0.0,WeatherDisplay:10.37,2013-09-03 15:09:00,
2013-09-03 11:14:00,82.9,74.9,29.90,South,173,2.6,3.5,77,0.00,OVC,,0.00,0.0,WeatherDisplay:10.37,2013-09-03 15:14:00,
2013-09-03 11:19:00,82.9,74.9,29.90,South,188,4.1,8.1,77,0.00,OVC,,0.00,0.0,WeatherDisplay:10.37,2013-09-03 15:19:00,
2013-09-03 11:24:00,82.8,74.8,29.90,SW,217,3.7,6.9,77,0.00,OVC,,0.00,0.0,WeatherDisplay:10.37,2013-09-03 15:24:00,
2013-09-03 11:29:00,82.7,74.8,29.90,SSW,209,5.4,9.2,77,0.00,OVC,,0.00,0.0,WeatherDisplay:10.37,2013-09-03 15:29:00,
2013-09-03 11:34:00,82.6,75.0,29.90,WNW,286,4.2,10.4,78,0.00,OVC,,0.00,0.0,WeatherDisplay:10.37,2013-09-03 15:34:00,
2013-09-03 11:39:00,82.8,74.8,29.90,WSW,240,4.3,5.8,77,0.00,OVC,,0.00,0.0,WeatherDisplay:10.37,2013-09-03 15:39:00,
2013-09-03 11:44:00,82.9,74.6,29.90,SSE,166,5.0,9.2,76,0.00,OVC,,0.00,0.0,WeatherDisplay:10.37,2013-09-03 15:44:00,
2013-09-03 11:49:00,82.8,74.5,29.90,SW,219,5.5,6.9,76,0.00,OVC,,0.00,0.0,WeatherDisplay:10.37,2013-09-03 15:49:00,
2013-09-03 11:54:00,82.7,74.8,29.89,SW,223,2.9,4.6,77,0.00,OVC,,0.00,0.0,WeatherDisplay:10.37,2013-09-03 15:54:00,
2013-09-03 11:59:00,82.8,74.8,29.89,WSW,242,0.5,2.3,77,0.00,OVC,,0.00,0.0,WeatherDisplay:10.37,2013-09-03 15:59:00,
2013-09-03 12:04:00,83.2,75.2,29.89,SW,236,2.9,4.6,77,0.00,OVC,,0.00,0.0,WeatherDisplay:10.37,2013-09-03 16:04:00,
2013-09-03 12:09:00,83.9,75.1,29.89,South,169,3.0,4.6,75,0.00,OVC,,0.00,0.0,WeatherDisplay:10.37,2013-09-03 16:09:00,
2013-09-03 12:14:00,84.2,75.4,29.89,SW,219,5.8,9.2,75,0.00,OVC,,0.00,0.0,WeatherDisplay:10.37,2013-09-03 16:14:00,
2013-09-03 12:19:00,84.7,75.9,29.89,SW,231,1.6,3.5,75,0.00,OVC,,0.00,0.0,WeatherDisplay:10.37,2013-09-03 16:19:00,
2013-09-03 12:24:00,84.9,75.7,29.89,South,175,2.6,5.8,74,0.00,OVC,,0.00,0.0,WeatherDisplay:10.37,2013-09-03 16:24:00,
2013-09-03 12:29:00,85.0,76.2,29.89,SW,232,0.7,2.3,75,0.00,OVC,,0.00,0.0,WeatherDisplay:10.37,2013-09-03 16:29:00,
2013-09-03 12:34:00,85.3,75.7,29.88,South,187,2.7,6.9,73,0.00,OVC,,0.00,0.0,WeatherDisplay:10.37,2013-09-03 16:34:00,
2013-09-03 12:39:00,85.8,76.1,29.88,SSW,195,3.4,4.6,73,0.00,OVC,,0.00,0.0,WeatherDisplay:10.37,2013-09-03 16:39:00,
2013-09-03 12:44:00,86.3,76.2,29.88,South,169,3.1,8.1,72,0.00,OVC,,0.00,0.0,WeatherDisplay:10.37,2013-09-03 16:44:00,
2013-09-03 12:49:00,86.3,75.8,29.88,SSE,150,2.5,4.6,71,0.00,OVC,,0.00,0.0,WeatherDisplay:10.37,2013-09-03 16:49:00,
2013-09-03 12:54:00,86.6,76.5,29.87,SSE,155,3.7,5.8,72,0.00,OVC,,0.00,0.0,WeatherDisplay:10.37,2013-09-03 16:54:00,
2013-09-03 12:59:00,87.1,76.5,29.87,West,279,0.9,3.5,71,0.00,OVC,,0.00,0.0,WeatherDisplay:10.37,2013-09-03 16:59:00,
2013-09-03 13:04:00,87.9,76.9,29.87,SW,219,3.9,6.9,70,0.00,OVC,,0.00,0.0,WeatherDisplay:10.37,2013-09-03 17:04:00,
2013-09-03 13:09:00,88.4,76.9,29.86,South,175,0.5,4.0,69,0.00,OVC,,0.00,0.0,WeatherDisplay:10.37,2013-09-03 17:09:00,
2013-09-03 13:14:00,88.3,75.9,29.86,WSW,238,2.9,8.1,67,0.00,OVC,,0.00,0.0,WeatherDisplay:10.37,2013-09-03 17:14:00,
2013-09-03 13:19:00,88.2,76.7,29.86,South,186,0.7,4.0,69,0.00,OVC,,0.00,0.0,WeatherDisplay:10.37,2013-09-03 17:19:00,
2013-09-03 13:25:00,88.3,75.9,29.85,South,191,3.5,8.1,67,0.00,OVC,,0.00,0.0,WeatherDisplay:10.37,2013-09-03 17:25:00,
2013-09-03 13:30:00,88.5,76.1,29.85,SSW,201,4.3,8.1,67,0.00,OVC,,0.00,0.0,WeatherDisplay:10.37,2013-09-03 17:30:00,
2013-09-03 13:35:00,88.6,76.2,29.85,South,188,4.6,9.2,67,0.00,OVC,,0.00,0.0,WeatherDisplay:10.37,2013-09-03 17:35:00,
2013-09-03 13:40:00,88.8,76.4,29.85,SSW,211,5.1,8.1,67,0.00,OVC,,0.00,0.0,WeatherDisplay:10.37,2013-09-03 17:40:00,
2013-09-03 13:45:00,88.5,77.5,29.85,South,182,1.4,8.1,70,0.00,OVC,,0.00,0.0,WeatherDisplay:10.37,2013-09-03 17:45:00,
2013-09-03 13:50:00,88.2,77.6,29.84,SSE,154,4.9,10.4,71,0.00,OVC,,0.00,0.0,WeatherDisplay:10.37,2013-09-03 17:50:00,
2013-09-03 13:55:00,88.0,77.4,29.84,SE,128,1.2,8.1,71,0.00,OVC,,0.00,0.0,WeatherDisplay:10.37,2013-09-03 17:55:00,
2013-09-03 14:00:00,88.2,77.2,29.84,SSW,193,8.0,15.0,70,0.00,OVC,,0.00,0.0,WeatherDisplay:10.37,2013-09-03 18:00:00,
2013-09-03 14:05:00,88.2,75.9,29.84,South,173,5.8,11.5,67,0.00,OVC,,0.00,0.0,WeatherDisplay:10.37,2013-09-03 18:05:00,
2013-09-03 14:10:00,87.9,76.5,29.84,SSE,157,3.7,5.8,69,0.00,OVC,,0.00,0.0,WeatherDisplay:10.37,2013-09-03 18:10:00,
2013-09-03 14:15:00,87.5,76.5,29.84,South,178,2.7,5.8,70,0.00,OVC,,0.00,0.0,WeatherDisplay:10.37,2013-09-03 18:15:00,
2013-09-03 14:20:00,86.8,75.8,29.83,East,99,4.0,9.2,70,0.00,OVC,,0.00,0.0,WeatherDisplay:10.37,2013-09-03 18:20:00,
2013-09-03 14:25:00,86.3,76.2,29.83,SSW,194,3.9,11.5,72,0.00,OVC,,0.00,0.0,WeatherDisplay:10.37,2013-09-03 18:25:00,
2013-09-03 14:30:00,86.0,77.1,29.83,SSE,167,2.2,3.5,75,0.00,OVC,,0.00,0.0,WeatherDisplay:10.37,2013-09-03 18:30:00,
2013-09-03 14:35:00,85.6,76.4,29.83,SSW,198,2.4,4.6,74,0.00,OVC,,0.00,0.0,WeatherDisplay:10.37,2013-09-03 18:35:00,
2013-09-03 14:40:00,85.1,76.7,29.83,West,261,3.4,5.8,76,0.00,OVC,,0.00,0.0,WeatherDisplay:10.37,2013-09-03 18:40:00,
2013-09-03 14:45:00,84.2,76.6,29.83,WSW,240,0.4,3.5,78,0.00,OVC,,0.00,0.0,WeatherDisplay:10.37,2013-09-03 18:45:00,
2013-09-03 14:50:00,83.9,77.4,29.83,SW,229,1.9,4.6,81,0.00,OVC,,0.00,0.0,WeatherDisplay:10.37,2013-09-03 18:50:00,
2013-09-03 14:55:00,83.9,76.7,29.82,SW,232,2.2,4.0,79,0.00,OVC,,0.00,0.0,WeatherDisplay:10.37,2013-09-03 18:55:00,
2013-09-03 15:00:00,84.0,75.2,29.82,WSW,243,4.8,9.2,75,0.00,OVC,,0.00,0.0,WeatherDisplay:10.37,2013-09-03 19:00:00,
2013-09-03 15:05:00,84.2,76.6,29.82,WSW,242,2.3,5.8,78,0.00,OVC,,0.00,0.0,WeatherDisplay:10.37,2013-09-03 19:05:00,
2013-09-03 15:10:00,84.2,78.5,29.82,SSW,192,0.2,2.3,83,0.00,OVC,,0.00,0.0,WeatherDisplay:10.37,2013-09-03 19:10:00,
2013-09-03 15:15:00,84.3,77.8,29.82,SW,227,1.0,3.5,81,0.00,OVC,,0.00,0.0,WeatherDisplay:10.37,2013-09-03 19:15:00,
2013-09-03 15:20:00,84.5,78.0,29.82,SW,234,3.2,6.0,81,0.00,OVC,,0.00,0.0,WeatherDisplay:10.37,2013-09-03 19:20:00,
2013-09-03 15:25:00,84.6,77.4,29.82,WNW,298,2.6,4.6,79,0.00,OVC,,0.00,0.0,WeatherDisplay:10.37,2013-09-03 19:25:00,
2013-09-03 15:30:00,84.6,75.4,29.82,SSW,205,6.3,16.1,74,0.00,OVC,,0.00,0.0,WeatherDisplay:10.37,2013-09-03 19:30:00,
2013-09-03 15:35:00,84.6,76.6,29.82,West,268,0.7,3.5,77,0.00,OVC,,0.00,0.0,WeatherDisplay:10.37,2013-09-03 19:35:00,
2013-09-03 15:40:00,84.5,77.3,29.82,West,275,2.4,4.6,79,0.00,OVC,,0.00,0.0,WeatherDisplay:10.37,2013-09-03 19:40:00,
2013-09-03 15:45:00,84.3,77.5,29.82,WSW,246,0.3,2.3,80,0.00,OVC,,0.00,0.0,WeatherDisplay:10.37,2013-09-03 19:45:00,
2013-09-03 15:50:00,83.9,77.4,29.82,West,279,1.6,6.0,81,0.00,OVC,,0.00,0.0,WeatherDisplay:10.37,2013-09-03 19:50:00,
2013-09-03 15:55:00,83.5,77.4,29.82,West,273,1.3,3.0,82,0.00,OVC,,0.00,0.0,WeatherDisplay:10.37,2013-09-03 19:55:00,
2013-09-03 16:00:00,83.0,76.9,29.82,WNW,282,1.6,3.5,82,0.00,OVC,,0.00,0.0,WeatherDisplay:10.37,2013-09-03 20:00:00,
2013-09-03 16:05:00,83.2,78.2,29.82,WSW,237,1.6,4.6,85,0.00,OVC,,0.00,0.0,WeatherDisplay:10.37,2013-09-03 20:05:00,
2013-09-03 16:10:00,83.8,77.7,29.82,South,173,4.2,5.8,82,0.00,OVC,,0.00,0.0,WeatherDisplay:10.37,2013-09-03 20:10:00,
2013-09-03 16:15:00,84.4,77.6,29.82,WSW,248,6.3,9.2,80,0.00,OVC,,0.00,0.0,WeatherDisplay:10.37,2013-09-03 20:15:00,
2013-09-03 16:20:00,84.6,77.7,29.82,SSW,194,6.4,9.2,80,0.00,OVC,,0.00,0.0,WeatherDisplay:10.37,2013-09-03 20:20:00,
2013-09-03 16:25:00,85.0,77.8,29.82,SW,224,1.9,6.0,79,0.00,OVC,,0.00,0.0,WeatherDisplay:10.37,2013-09-03 20:25:00,
2013-09-03 16:30:00,85.4,76.2,29.82,SW,220,3.4,10.4,74,0.00,OVC,,0.00,0.0,WeatherDisplay:10.37,2013-09-03 20:30:00,
2013-09-03 16:35:00,85.7,75.2,29.83,SSE,157,2.9,4.6,71,0.00,OVC,,0.00,0.0,WeatherDisplay:10.37,2013-09-03 20:35:00,
2013-09-03 16:40:00,86.0,75.5,29.83,WSW,256,0.5,2.3,71,0.00,OVC,,0.00,0.0,WeatherDisplay:10.37,2013-09-03 20:40:00,
2013-09-03 16:45:00,86.6,76.1,29.83,SW,218,3.3,4.6,71,0.00,OVC,,0.00,0.0,WeatherDisplay:10.37,2013-09-03 20:45:00,
2013-09-03 16:50:00,87.2,76.6,29.83,SW,217,6.1,9.0,71,0.00,OVC,,0.00,0.0,WeatherDisplay:10.37,2013-09-03 20:50:00,
2013-09-03 16:55:00,87.4,76.8,29.82,South,182,3.1,5.8,71,0.00,OVC,,0.00,0.0,WeatherDisplay:10.37,2013-09-03 20:55:00,
2013-09-03 17:00:00,87.5,77.4,29.83,SSW,203,3.7,5.8,72,0.00,OVC,,0.00,0.0,WeatherDisplay:10.37,2013-09-03 21:00:00,
2013-09-03 17:05:00,87.1,77.4,29.83,South,169,1.5,4.0,73,0.00,OVC,,0.00,0.0,WeatherDisplay:10.37,2013-09-03 21:05:00,
2013-09-03 17:10:00,86.5,77.2,29.83,SW,232,1.5,3.5,74,0.00,OVC,,0.00,0.0,WeatherDisplay:10.37,2013-09-03 21:10:00,
2013-09-03 17:15:00,86.0,77.1,29.82,SW,221,1.5,4.6,75,0.00,OVC,,0.00,0.0,WeatherDisplay:10.37,2013-09-03 21:15:00,
2013-09-03 17:20:00,85.6,77.2,29.82,SSW,208,1.7,3.5,76,0.00,OVC,,0.00,0.0,WeatherDisplay:10.37,2013-09-03 21:20:00,
2013-09-03 17:25:00,85.2,76.8,29.83,SSW,202,2.8,8.1,76,0.00,OVC,,0.00,0.0,WeatherDisplay:10.37,2013-09-03 21:25:00,
2013-09-03 17:30:00,84.9,76.9,29.82,South,187,3.1,4.6,77,0.00,OVC,,0.00,0.0,WeatherDisplay:10.37,2013-09-03 21:30:00,
2013-09-03 17:35:00,84.7,77.1,29.83,SW,224,2.4,4.6,78,0.00,OVC,,0.00,0.0,WeatherDisplay:10.37,2013-09-03 21:35:00,
2013-09-03 17:40:00,84.5,76.9,29.83,SW,215,0.9,3.5,78,0.00,OVC,,0.00,0.0,WeatherDisplay:10.37,2013-09-03 21:40:00,
2013-09-03 17:45:00,84.3,77.1,29.83,SW,224,3.4,6.9,79,0.00,OVC,,0.00,0.0,WeatherDisplay:10.37,2013-09-03 21:45:00,
2013-09-03 17:50:00,84.1,76.9,29.83,SSE,155,1.2,2.3,79,0.00,OVC,,0.00,0.0,WeatherDisplay:10.37,2013-09-03 21:50:00,
2013-09-03 17:55:00,83.9,76.7,29.84,SW,216,2.3,4.6,79,0.00,OVC,,0.00,0.0,WeatherDisplay:10.37,2013-09-03 21:55:00,
2013-09-03 18:00:00,83.6,76.8,29.84,SSW,192,3.7,6.9,80,0.00,OVC,,0.00,0.0,WeatherDisplay:10.37,2013-09-03 22:00:00,
2013-09-03 18:05:00,83.4,76.6,29.84,SSW,192,0.4,3.0,80,0.00,OVC,,0.00,0.0,WeatherDisplay:10.37,2013-09-03 22:05:00,
2013-09-03 18:10:00,83.3,76.9,29.84,South,188,2.5,4.6,81,0.00,OVC,,0.00,0.0,WeatherDisplay:10.37,2013-09-03 22:10:00,
2013-09-03 18:15:00,83.1,76.7,29.84,South,182,2.0,5.0,81,0.00,OVC,,0.00,0.0,WeatherDisplay:10.37,2013-09-03 22:15:00,
2013-09-03 18:20:00,82.9,76.8,29.84,South,180,2.0,6.0,82,0.00,OVC,,0.00,0.0,WeatherDisplay:10.37,2013-09-03 22:20:00,
2013-09-03 18:25:00,82.7,76.6,29.84,SSE,153,0.8,3.0,82,0.00,OVC,,0.00,0.0,WeatherDisplay:10.37,2013-09-03 22:25:00,
2013-09-03 18:30:00,82.6,76.5,29.83,SSW,205,1.5,5.8,82,0.00,OVC,,0.00,0.0,WeatherDisplay:10.37,2013-09-03 22:30:00,
2013-09-03 18:36:00,82.5,76.4,29.84,WNW,299,1.7,3.5,82,0.00,OVC,,0.00,0.0,WeatherDisplay:10.37,2013-09-03 22:36:00,
2013-09-03 18:41:00,82.5,76.4,29.83,SW,217,1.3,3.5,82,0.00,OVC,,0.00,0.0,WeatherDisplay:10.37,2013-09-03 22:41:00,
2013-09-03 18:46:00,82.5,76.4,29.84,WSW,244,2.9,4.6,82,0.00,OVC,,0.00,0.0,WeatherDisplay:10.37,2013-09-03 22:46:00,
2013-09-03 18:51:00,82.5,76.8,29.84,WSW,242,0.1,1.1,83,0.00,OVC,,0.00,0.0,WeatherDisplay:10.37,2013-09-03 22:51:00,
2013-09-03 18:56:00,82.5,76.8,29.84,SW,231,1.2,3.5,83,0.00,OVC,,0.00,0.0,WeatherDisplay:10.37,2013-09-03 22:56:00,
2013-09-03 19:01:00,82.5,76.8,29.84,SW,232,0.0,0.0,83,0.00,OVC,,0.00,0.0,WeatherDisplay:10.37,2013-09-03 23:01:00,
2013-09-03 19:06:00,82.4,77.1,29.84,WSW,248,0.0,0.0,84,0.00,OVC,,0.00,0.0,WeatherDisplay:10.37,2013-09-03 23:06:00,
2013-09-03 19:11:00,82.2,76.9,29.85,SW,230,0.0,0.0,84,0.00,OVC,,0.00,0.0,WeatherDisplay:10.37,2013-09-03 23:11:00,
2013-09-03 19:16:00,82.0,76.7,29.86,West,264,0.1,1.1,84,0.00,OVC,,0.00,0.0,WeatherDisplay:10.37,2013-09-03 23:16:00,
2013-09-03 19:21:00,81.9,76.6,29.86,WSW,257,0.0,1.1,84,0.00,OVC,,0.00,0.0,WeatherDisplay:10.37,2013-09-03 23:21:00,
2013-09-03 19:26:00,81.7,76.7,29.86,WNW,288,0.0,0.0,85,0.00,OVC,,0.00,0.0,WeatherDisplay:10.37,2013-09-03 23:26:00,
2013-09-03 19:31:00,81.5,76.6,29.86,West,271,0.0,1.1,85,0.00,OVC,,0.00,0.0,WeatherDisplay:10.37,2013-09-03 23:31:00,
2013-09-03 19:36:00,81.3,76.7,29.87,West,269,0.2,2.3,86,0.00,OVC,,0.00,0.0,WeatherDisplay:10.37,2013-09-03 23:36:00,
2013-09-03 19:41:00,81.1,76.5,29.87,WNW,284,0.9,2.3,86,0.00,OVC,,0.00,0.0,WeatherDisplay:10.37,2013-09-03 23:41:00,
2013-09-03 19:46:00,80.9,76.7,29.88,WNW,296,0.2,1.1,87,0.00,OVC,,0.00,0.0,WeatherDisplay:10.37,2013-09-03 23:46:00,
2013-09-03 19:51:00,80.5,73.8,29.86,NNE,29,0.7,3.5,80,0.00,OVC,,0.00,0.0,WeatherDisplay:10.37,2013-09-03 23:51:00,
2013-09-03 19:56:00,80.2,73.8,29.87,North,360,0.6,2.3,81,0.00,OVC,,0.00,0.0,WeatherDisplay:10.37,2013-09-03 23:56:00,
2013-09-03 20:01:00,79.7,72.6,29.87,NNW,346,0.0,1.1,79,0.01,RA,OVC,0.01,0.0,WeatherDisplay:10.37,2013-09-04 00:01:00,
2013-09-03 20:06:00,79.1,72.4,29.87,WNW,294,0.1,3.5,80,0.01,RA,OVC,0.01,0.0,WeatherDisplay:10.37,2013-09-04 00:06:00,
2013-09-03 20:11:00,78.5,71.1,29.88,NNE,29,1.3,3.5,78,0.01,CLR,OVC,0.01,0.0,WeatherDisplay:10.37,2013-09-04 00:11:00,
2013-09-03 20:16:00,77.6,69.0,29.89,NE,45,0.8,3.5,75,0.01,CLR,OVC,0.01,0.0,WeatherDisplay:10.37,2013-09-04 00:16:00,
2013-09-03 20:21:00,76.7,67.8,29.90,NNE,32,0.7,4.6,74,0.01,CLR,OVC,0.01,0.0,WeatherDisplay:10.37,2013-09-04 00:21:00,
2013-09-03 20:26:00,75.8,67.7,29.90,North,360,0.6,3.5,76,0.01,CLR,OVC,0.01,0.0,WeatherDisplay:10.37,2013-09-04 00:26:00,
2013-09-03 20:31:00,74.6,67.7,29.90,NE,34,5.2,9.0,79,0.01,CLR,OVC,0.01,0.0,WeatherDisplay:10.37,2013-09-04 00:31:00,
2013-09-03 20:36:00,73.5,67.7,29.91,North,355,0.0,1.1,82,0.01,CLR,OVC,0.01,0.0,WeatherDisplay:10.37,2013-09-04 00:36:00,
2013-09-03 20:41:00,73.0,67.9,29.91,NNE,26,0.8,3.5,84,0.01,CLR,OVC,0.01,0.0,WeatherDisplay:10.37,2013-09-04 00:41:00,
2013-09-03 20:46:00,72.8,67.7,29.91,East,94,0.5,2.3,84,0.01,CLR,OVC,0.01,0.0,WeatherDisplay:10.37,2013-09-04 00:46:00,
2013-09-03 20:51:00,72.7,67.9,29.91,East,90,0.0,0.0,85,0.01,CLR,OVC,0.01,0.0,WeatherDisplay:10.37,2013-09-04 00:51:00,
2013-09-03 20:56:00,72.7,67.9,29.91,East,90,0.0,1.0,85,0.01,CLR,OVC,0.01,0.0,WeatherDisplay:10.37,2013-09-04 00:56:00,
2013-09-03 21:01:00,72.6,68.2,29.91,East,95,0.1,1.1,86,0.00,CLR,OVC,0.01,0.0,WeatherDisplay:10.37,2013-09-04 01:01:00,
2013-09-03 21:06:00,72.6,68.2,29.91,East,95,0.0,0.0,86,0.00,CLR,OVC,0.01,0.0,WeatherDisplay:10.37,2013-09-04 01:06:00,
2013-09-03 21:11:00,72.6,68.5,29.91,SSE,166,0.6,1.1,87,0.00,CLR,OVC,0.01,0.0,WeatherDisplay:10.37,2013-09-04 01:11:00,
2013-09-03 21:16:00,72.5,68.4,29.91,SW,216,0.2,1.1,87,0.00,CLR,OVC,0.01,0.0,WeatherDisplay:10.37,2013-09-04 01:16:00,
2013-09-03 21:21:00,72.4,68.3,29.91,SW,216,0.3,1.1,87,0.00,CLR,OVC,0.01,0.0,WeatherDisplay:10.37,2013-09-04 01:21:00,
2013-09-03 21:26:00,72.2,68.4,29.91,SW,216,0.0,0.0,88,0.00,CLR,OVC,0.01,0.0,WeatherDisplay:10.37,2013-09-04 01:26:00,
2013-09-03 21:31:00,72.0,68.2,29.91,SW,216,0.6,2.3,88,0.00,CLR,OVC,0.01,0.0,WeatherDisplay:10.37,2013-09-04 01:31:00,
2013-09-03 21:36:00,71.9,68.2,29.91,SW,216,0.1,1.1,88,0.00,CLR,OVC,0.01,0.0,WeatherDisplay:10.37,2013-09-04 01:36:00,
2013-09-03 21:41:00,71.7,68.0,29.91,SW,216,0.3,1.1,88,0.00,CLR,OVC,0.01,0.0,WeatherDisplay:10.37,2013-09-04 01:41:00,
2013-09-03 21:46:00,71.7,68.3,29.92,SW,216,0.4,2.3,89,0.00,CLR,OVC,0.01,0.0,WeatherDisplay:10.37,2013-09-04 01:46:00,
2013-09-03 21:51:00,71.7,68.0,29.92,West,269,0.3,2.0,88,0.00,CLR,OVC,0.01,0.0,WeatherDisplay:10.37,2013-09-04 01:51:00,
2013-09-03 21:56:00,71.7,68.0,29.93,SW,232,0.0,1.1,88,0.00,CLR,OVC,0.01,0.0,WeatherDisplay:10.37,2013-09-04 01:56:00,
2013-09-03 22:01:00,71.7,68.0,29.92,South,190,0.0,1.1,88,0.00,CLR,OVC,0.01,0.0,WeatherDisplay:10.37,2013-09-04 02:01:00,
2013-09-03 22:06:00,71.8,68.1,29.92,South,171,0.1,1.1,88,0.00,CLR,OVC,0.01,0.0,WeatherDisplay:10.37,2013-09-04 02:06:00,
2013-09-03 22:11:00,71.9,68.2,29.92,South,171,0.1,1.0,88,0.00,CLR,OVC,0.01,0.0,WeatherDisplay:10.37,2013-09-04 02:11:00,
2013-09-03 22:16:00,72.0,68.2,29.92,South,186,0.0,0.0,88,0.00,CLR,OVC,0.01,0.0,WeatherDisplay:10.37,2013-09-04 02:16:00,
2013-09-03 22:21:00,72.1,68.0,29.93,SSE,159,0.8,2.3,87,0.00,CLR,OVC,0.01,0.0,WeatherDisplay:10.37,2013-09-04 02:21:00,
2013-09-03 22:26:00,72.1,68.0,29.92,South,172,0.0,1.1,87,0.00,CLR,OVC,0.01,0.0,WeatherDisplay:10.37,2013-09-04 02:26:00,
2013-09-03 22:31:00,72.3,68.2,29.92,South,189,0.0,1.1,87,0.00,CLR,OVC,0.01,0.0,WeatherDisplay:10.37,2013-09-04 02:31:00,
2013-09-03 22:37:00,72.3,67.9,29.93,SSE,157,0.0,0.0,86,0.00,CLR,OVC,0.01,0.0,WeatherDisplay:10.37,2013-09-04 02:37:00,
2013-09-03 22:42:00,72.3,67.9,29.93,SSE,157,0.0,0.0,86,0.00,CLR,OVC,0.01,0.0,WeatherDisplay:10.37,2013-09-04 02:42:00,
2013-09-03 22:47:00,72.3,67.9,29.93,SSE,157,0.0,0.0,86,0.00,CLR,OVC,0.01,0.0,WeatherDisplay:10.37,2013-09-04 02:47:00,
2013-09-03 22:52:00,72.2,67.8,29.93,SSE,157,0.0,0.0,86,0.00,CLR,OVC,0.01,0.0,WeatherDisplay:10.37,2013-09-04 02:52:00,
2013-09-03 22:57:00,72.2,68.4,29.93,SSE,157,0.0,0.0,88,0.00,CLR,OVC,0.01,0.0,WeatherDisplay:10.37,2013-09-04 02:57:00,
2013-09-03 23:02:00,72.1,68.3,29.93,SSE,157,0.0,0.0,88,0.00,CLR,OVC,0.01,0.0,WeatherDisplay:10.37,2013-09-04 03:02:00,
2013-09-03 23:07:00,72.0,68.2,29.93,SSE,157,0.0,0.0,88,0.00,CLR,OVC,0.01,0.0,WeatherDisplay:10.37,2013-09-04 03:07:00,
2013-09-03 23:12:00,71.9,68.2,29.93,SSE,157,0.0,0.0,88,0.00,CLR,OVC,0.01,0.0,WeatherDisplay:10.37,2013-09-04 03:12:00,
2013-09-03 23:17:00,71.7,68.0,29.93,SSE,157,0.0,0.0,88,0.00,CLR,OVC,0.01,0.0,WeatherDisplay:10.37,2013-09-04 03:17:00,
2013-09-03 23:22:00,71.6,68.2,29.94,SSE,157,0.0,0.0,89,0.00,CLR,OVC,0.01,0.0,WeatherDisplay:10.37,2013-09-04 03:22:00,
2013-09-03 23:27:00,71.6,68.2,29.94,SSE,157,0.0,0.0,89,0.00,CLR,OVC,0.01,0.0,WeatherDisplay:10.37,2013-09-04 03:27:00,
2013-09-03 23:32:00,71.5,68.4,29.94,SSE,157,0.0,0.0,90,0.00,CLR,OVC,0.01,0.0,WeatherDisplay:10.37,2013-09-04 03:32:00,
2013-09-03 23:37:00,71.5,68.4,29.94,SSE,157,0.0,0.0,90,0.00,CLR,OVC,0.01,0.0,WeatherDisplay:10.37,2013-09-04 03:37:00,
2013-09-03 23:42:00,71.4,68.3,29.95,SSE,157,0.0,0.0,90,0.00,CLR,OVC,0.01,0.0,WeatherDisplay:10.37,2013-09-04 03:42:00,
2013-09-03 23:47:00,71.3,68.5,29.95,SSE,157,0.0,0.0,91,0.00,CLR,OVC,0.01,0.0,WeatherDisplay:10.37,2013-09-04 03:47:00,
2013-09-03 23:52:00,71.2,68.4,29.95,SSE,157,0.0,0.0,91,0.00,CLR,OVC,0.01,0.0,WeatherDisplay:10.37,2013-09-04 03:52:00,
2013-09-03 23:57:00,71.2,68.4,29.95,SSE,157,0.0,0.0,91,0.00,CLR,OVC,0.01,0.0,WeatherDisplay:10.37,2013-09-04 03:57:00,